Owen Roberts, Cayman Islands

10:26 PM EST on September 01, 2014 (GMT -0500)
Crewe Road, G.T. | Change Station
CLOSE
Current Station
Personal Weather Station
Location: George Town, Grand Cayman
Elevation: 10 ft
Nearby Weather Stations

Elev 10 ft 19.29 °N, 81.36 °W | Updated 0 second ago

Partly Cloudy
Partly Cloudy
79.8 °F
Feels Like 86 °F
N
0.0
Wind Variable Wind from East
Gusts 1.0 mph

Today
High -- | Low -- °F
--% Chance of Precip.
Yesterday
High -- | Low -- °F
Precip. -- in
6:10 AM 6:40 PM
Waxing Crescent, 47% visible
Pressure 29.98 in
Visibility 6.2 miles
Clouds Few 1800 ft
Heat Index 86 °F
Dew Point 78 °F
Humidity 94%
Rainfall 0.00 in
Snow Depth Not available.
UV 0.0 out of 12
Pollen Not available.
Air Quality Not available.
Flu Activity Not available.
METAR MWCR 020300Z 12003KT 9999 FEW018 29/27 Q1015 NOSIG

More Conditions Fewer Conditions

Pressure 29.98 in
Visibility 6.2 miles
Clouds Few 1800 ft
Heat Index 86 °F
Dew Point 78 °F
Humidity 94%
Rainfall 0.00 in
Snow Depth Not available.
UV 0.0 out of 12
Pollen Not available.
Air Quality Not available.
Flu Activity Not available.
METAR MWCR 020300Z 12003KT 9999 FEW018 29/27 Q1015 NOSIG

More Conditions Fewer Conditions

10-Day Weather Forecast

Almanac

Astronomy

Sep. 01, 2014 Rise Set
Actual Time 6:10 AM EST 6:40 PM EST
Civil Twilight 5:48 AM EST 7:02 PM EST
Nautical Twilight 5:22 AM EST 7:28 PM EST
Astronomical Twilight 4:55 AM EST 7:54 PM EST
Moon 12:01 PM EST (9/1) 11:34 PM EST (9/1)
Length of Visible Light 13h 14m
Length of Day
12h 29m
Tomorrow will be 1m 3s shorter.
Waxing Crescent, 47% of the Moon is Illuminated
Today
Waxing Crescent
Sep 2
First Quarter
Sep 8
Full
Sep 15
Last Quarter
Sep 24
New

Today's Extremes

Country Highs Country Lows

Community

WunderPhotos

Upload Photos

1,749,546 photos uploaded!

WunderBlogs® & News

Nearby

Snow Depth

Not available.

Earthquake Activity

City Distance Mag. Time & Date
No recent earthquake activity has been reported nearby.
Minimum magnitude displayed is 2.5.

Coastal Water Temperatures

Place Temperature
No Stations Reporting

Nearby Weather Stations